Time;durP1;ratioP1;P1;durP2;ratioP2;P2;SDS_P1;SDS_P2;PMS_P1;PMS_P2;Temp;Humidity;BMP_temperature;BMP_pressure;BME280_temperature;BME280_humidity;BME280_pressure;Samples;Min_cycle;Max_cycle;Signal;HPM_P1;HPM_P2
2023/04/29 00:01:08;;;;;;;4.57;1.90;;;11.50;99.90;;;;;;5031568;28;20268;-66
2023/04/29 00:03:34;;;;;;;5.10;2.07;;;11.40;99.90;;;;;;5013115;28;20202;-66
2023/04/29 00:06:00;;;;;;;6.93;2.10;;;11.40;99.90;;;;;;5026440;28;20445;-66
2023/04/29 00:08:26;;;;;;;3.27;2.00;;;11.40;99.90;;;;;;5021494;28;20441;-66
2023/04/29 00:10:52;;;;;;;3.40;1.67;;;11.60;99.90;;;;;;5032494;28;20449;-66
2023/04/29 00:13:17;;;;;;;6.73;1.70;;;11.50;99.90;;;;;;5020414;28;20204;-66
2023/04/29 00:15:43;;;;;;;3.77;2.23;;;11.50;99.90;;;;;;5031255;28;20195;-66
2023/04/29 00:18:09;;;;;;;3.23;2.00;;;11.50;99.90;;;;;;5021280;28;20209;-66
2023/04/29 00:20:36;;;;;;;2.93;1.63;;;11.50;99.90;;;;;;5022333;28;20679;-66
2023/04/29 00:23:02;;;;;;;2.73;2.03;;;11.50;99.90;;;;;;5021047;28;20888;-66
2023/04/29 00:25:28;;;;;;;2.30;1.40;;;11.50;99.90;;;;;;5023504;28;20512;-66
2023/04/29 00:27:54;;;;;;;3.03;1.40;;;11.50;99.90;;;;;;5021524;28;20182;-66
2023/04/29 00:30:19;;;;;;;3.10;2.00;;;11.40;99.90;;;;;;5030389;28;20233;-66
2023/04/29 00:32:45;;;;;;;3.30;1.97;;;11.30;99.90;;;;;;5012817;28;20640;-66
2023/04/29 00:35:11;;;;;;;3.43;1.80;;;11.40;99.90;;;;;;5027269;28;20183;-66
2023/04/29 00:37:36;;;;;;;3.40;1.97;;;11.40;99.90;;;;;;5024610;28;20186;-66
2023/04/29 00:40:03;;;;;;;3.30;2.13;;;11.40;99.90;;;;;;5012369;28;20252;-67
2023/04/29 00:42:32;;;;;;;4.57;2.53;;;11.40;99.90;;;;;;5020558;28;20261;-66
2023/04/29 00:44:58;;;;;;;3.00;1.67;;;11.30;99.90;;;;;;5024025;28;20416;-66
2023/04/29 00:47:23;;;;;;;3.00;1.60;;;11.30;99.90;;;;;;5021753;28;20414;-66
2023/04/29 00:49:49;;;;;;;3.37;1.80;;;11.30;99.90;;;;;;5014253;28;20261;-66
2023/04/29 00:52:16;;;;;;;3.33;1.77;;;11.20;99.90;;;;;;5031907;28;20635;-66
2023/04/29 00:54:43;;;;;;;2.70;1.40;;;11.20;99.90;;;;;;5018904;28;20501;-66
2023/04/29 00:57:08;;;;;;;2.40;1.70;;;11.20;99.90;;;;;;5023385;28;20422;-66
2023/04/29 00:59:34;;;;;;;5.10;2.13;;;11.20;99.90;;;;;;5014184;28;21294;-66
2023/04/29 01:02:02;;;;;;;3.93;1.77;;;11.20;99.90;;;;;;5022352;28;20183;-66
2023/04/29 01:04:31;;;;;;;6.03;2.67;;;11.20;99.90;;;;;;5027230;28;20587;-66
2023/04/29 01:07:17;;;;;;;2.33;1.40;;;11.10;99.90;;;;;;5023226;28;20418;-66
2023/04/29 01:10:02;;;;;;;2.70;1.80;;;11.10;99.90;;;;;;5025873;28;20402;-66
2023/04/29 01:12:43;;;;;;;4.00;1.97;;;11.00;99.90;;;;;;5013164;28;20498;-66
2023/04/29 01:15:22;;;;;;;3.13;1.87;;;10.90;99.90;;;;;;5011243;28;20516;-66
2023/04/29 01:17:53;;;;;;;2.77;1.83;;;10.80;99.90;;;;;;5025090;28;20513;-66
2023/04/29 01:20:21;;;;;;;2.43;1.40;;;10.70;99.90;;;;;;5019581;28;20506;-66
2023/04/29 01:22:47;;;;;;;2.43;1.67;;;10.60;99.90;;;;;;5026022;28;20421;-66
2023/04/29 01:25:13;;;;;;;1.93;1.40;;;10.60;99.90;;;;;;5018369;28;20414;-66
2023/04/29 01:27:54;;;;;;;3.13;1.97;;;10.70;99.90;;;;;;5030490;28;20544;-66
2023/04/29 01:30:46;;;;;;;2.60;1.60;;;10.70;99.90;;;;;;5029158;28;20266;-66
2023/04/29 01:33:35;;;;;;;3.50;1.57;;;10.70;99.90;;;;;;5011468;28;20456;-66
2023/04/29 01:36:34;;;;;;;3.73;1.80;;;10.80;99.90;;;;;;5018944;28;20453;-66
2023/04/29 01:39:37;;;;;;;7.33;2.27;;;10.90;99.90;;;;;;5018088;28;20420;-66
2023/04/29 01:42:26;;;;;;;2.03;1.70;;;10.80;99.90;;;;;;5013249;28;20484;-66
2023/04/29 01:44:55;;;;;;;2.80;1.63;;;10.70;99.90;;;;;;4993871;28;20841;-66
2023/04/29 01:47:21;;;;;;;3.20;1.90;;;10.70;99.90;;;;;;5008175;28;20429;-66
2023/04/29 01:49:48;;;;;;;3.57;2.10;;;10.50;99.90;;;;;;5011027;28;20505;-66
2023/04/29 01:52:14;;;;;;;2.60;1.70;;;10.50;99.90;;;;;;5010986;28;20411;-66
2023/04/29 01:54:39;;;;;;;3.80;2.00;;;10.40;99.90;;;;;;5011647;28;20418;-66
2023/04/29 01:57:05;;;;;;;2.90;1.70;;;10.30;99.90;;;;;;5019337;28;20236;-66
2023/04/29 01:59:30;;;;;;;3.67;1.90;;;10.30;99.90;;;;;;5030823;28;20292;-66
2023/04/29 02:01:57;;;;;;;2.67;1.60;;;10.30;99.90;;;;;;5030020;28;20202;-66
2023/04/29 02:04:24;;;;;;;2.50;1.27;;;10.20;99.90;;;;;;5030438;28;20182;-66
2023/04/29 02:06:51;;;;;;;2.17;1.73;;;10.20;99.90;;;;;;5022760;28;20434;-66
2023/04/29 02:09:17;;;;;;;2.27;1.63;;;10.20;99.90;;;;;;5024267;28;20412;-66
2023/04/29 02:11:43;;;;;;;2.47;1.50;;;10.10;99.90;;;;;;5018583;28;20880;-66
2023/04/29 02:14:08;;;;;;;3.53;1.67;;;10.10;99.90;;;;;;5015582;28;20266;-66
2023/04/29 02:16:34;;;;;;;3.70;1.67;;;10.00;99.90;;;;;;5018781;28;20186;-66
2023/04/29 02:18:59;;;;;;;2.73;1.47;;;10.00;99.90;;;;;;5024728;28;20257;-66
2023/04/29 02:21:26;;;;;;;3.17;2.37;;;9.90;99.90;;;;;;5022123;28;20198;-66
2023/04/29 02:23:53;;;;;;;1.87;1.10;;;9.90;99.90;;;;;;5016937;28;20181;-66
2023/04/29 02:26:19;;;;;;;2.77;1.50;;;9.80;99.90;;;;;;5030114;28;20479;-66
2023/04/29 02:28:45;;;;;;;3.53;1.90;;;9.80;99.90;;;;;;5015387;28;21057;-66
2023/04/29 02:31:11;;;;;;;3.10;2.10;;;9.70;99.90;;;;;;5019085;28;20186;-66
2023/04/29 02:33:36;;;;;;;2.27;1.47;;;9.70;99.90;;;;;;5028201;28;20421;-66
2023/04/29 02:36:02;;;;;;;4.00;1.60;;;9.60;99.90;;;;;;5010468;28;20193;-66
2023/04/29 02:38:28;;;;;;;4.33;1.20;;;9.60;99.90;;;;;;5013003;28;20186;-66
2023/04/29 02:40:53;;;;;;;2.27;1.50;;;9.50;99.90;;;;;;5025382;28;20203;-66
2023/04/29 02:43:19;;;;;;;3.03;1.27;;;9.40;99.90;;;;;;5010421;28;20214;-66
2023/04/29 02:45:45;;;;;;;2.43;1.17;;;9.40;99.90;;;;;;5024707;28;20187;-66
2023/04/29 02:48:10;;;;;;;3.17;1.70;;;9.40;99.90;;;;;;5015832;28;20175;-66
2023/04/29 02:50:36;;;;;;;3.43;1.97;;;9.30;99.90;;;;;;5025827;28;20201;-66
2023/04/29 02:53:01;;;;;;;2.53;1.50;;;9.30;99.90;;;;;;5027578;28;20189;-66
2023/04/29 02:55:27;;;;;;;2.93;1.63;;;9.30;99.90;;;;;;5022285;28;20182;-66
2023/04/29 02:57:52;;;;;;;1.87;1.30;;;9.30;99.90;;;;;;5034224;28;20565;-66
2023/04/29 03:00:19;;;;;;;2.57;1.67;;;9.30;99.90;;;;;;5033964;28;20220;-66
2023/04/29 03:02:44;;;;;;;2.60;1.57;;;9.30;99.90;;;;;;5018933;28;20180;-66
2023/04/29 03:05:10;;;;;;;3.30;1.40;;;9.30;99.90;;;;;;5021541;28;20440;-66
2023/04/29 03:07:36;;;;;;;3.43;1.40;;;9.20;99.90;;;;;;5019942;28;20628;-66
2023/04/29 03:10:01;;;;;;;1.60;1.30;;;9.20;99.90;;;;;;5021598;28;20235;-66
2023/04/29 03:12:27;;;;;;;3.33;1.73;;;9.20;99.90;;;;;;5016115;28;20215;-66
2023/04/29 03:14:52;;;;;;;3.47;1.80;;;9.10;99.90;;;;;;5017025;28;20277;-66
2023/04/29 03:17:18;;;;;;;4.30;2.03;;;9.20;99.90;;;;;;5014368;28;20191;-66
2023/04/29 03:19:44;;;;;;;4.13;2.27;;;9.10;99.90;;;;;;5027916;28;20202;-66
2023/04/29 03:22:10;;;;;;;2.93;1.60;;;9.10;99.90;;;;;;5023794;28;20186;-66
2023/04/29 03:24:37;;;;;;;3.33;1.77;;;9.10;99.90;;;;;;5021926;28;20205;-66
2023/04/29 03:27:03;;;;;;;4.20;1.67;;;9.00;99.90;;;;;;5032624;28;20775;-66
2023/04/29 03:29:29;;;;;;;2.23;1.53;;;9.10;99.90;;;;;;5022067;28;20492;-66
2023/04/29 03:31:55;;;;;;;5.23;1.67;;;9.00;99.90;;;;;;5020060;28;20417;-66
2023/04/29 03:34:22;;;;;;;2.40;1.40;;;9.00;99.90;;;;;;5025418;28;20449;-66
2023/04/29 03:36:47;;;;;;;3.90;2.37;;;9.00;99.90;;;;;;5021688;28;20895;-66
2023/04/29 03:39:13;;;;;;;2.70;1.73;;;8.80;99.90;;;;;;5021943;28;20417;-66
2023/04/29 03:41:38;;;;;;;2.97;1.47;;;8.90;99.90;;;;;;5023374;28;20281;-66
2023/04/29 03:44:04;;;;;;;3.00;1.77;;;8.90;99.90;;;;;;5023718;28;20616;-66
2023/04/29 03:46:30;;;;;;;2.97;1.80;;;8.80;99.90;;;;;;5028217;28;20175;-66
2023/04/29 03:48:56;;;;;;;2.87;1.70;;;8.80;99.90;;;;;;5024831;28;20655;-66
2023/04/29 03:51:23;;;;;;;2.13;1.37;;;8.80;99.90;;;;;;5015104;28;20187;-66
2023/04/29 03:53:48;;;;;;;2.60;1.53;;;8.80;99.90;;;;;;5024771;28;20450;-66
2023/04/29 03:56:15;;;;;;;3.07;1.70;;;8.70;99.90;;;;;;5015019;28;20829;-65
2023/04/29 03:58:40;;;;;;;4.33;1.67;;;8.70;99.90;;;;;;5033184;28;20179;-65
2023/04/29 04:01:06;;;;;;;3.83;1.90;;;8.70;99.90;;;;;;5031542;28;20460;-65
2023/04/29 04:03:32;;;;;;;2.43;1.67;;;8.80;99.90;;;;;;5021219;28;20313;-65
2023/04/29 04:05:57;;;;;;;2.40;1.73;;;8.80;99.90;;;;;;5019686;28;20214;-65
2023/04/29 04:08:23;;;;;;;3.00;1.93;;;8.80;99.90;;;;;;5033217;28;20186;-65
2023/04/29 04:10:48;;;;;;;3.60;1.57;;;8.80;99.90;;;;;;5018383;28;20188;-65
2023/04/29 04:13:14;;;;;;;2.67;1.60;;;8.70;99.90;;;;;;5017777;28;20424;-65
2023/04/29 04:15:41;;;;;;;5.17;2.10;;;8.80;99.90;;;;;;5026759;28;20186;-65
2023/04/29 04:18:07;;;;;;;2.60;1.60;;;8.80;99.90;;;;;;5013304;28;20548;-65
2023/04/29 04:20:35;;;;;;;1.80;1.30;;;8.70;99.90;;;;;;5022211;28;20480;-65
2023/04/29 04:23:01;;;;;;;2.63;1.83;;;8.70;99.90;;;;;;5032384;28;20190;-65
2023/04/29 04:25:27;;;;;;;1.97;1.47;;;8.60;99.90;;;;;;5031062;28;20459;-65
2023/04/29 04:27:53;;;;;;;1.90;1.17;;;8.70;99.90;;;;;;5020544;28;20238;-65
2023/04/29 04:30:19;;;;;;;2.47;1.23;;;8.60;99.90;;;;;;5030901;28;20925;-65
2023/04/29 04:32:45;;;;;;;2.00;1.30;;;8.60;99.90;;;;;;5020943;28;20189;-65
2023/04/29 04:35:11;;;;;;;2.67;1.80;;;8.50;99.90;;;;;;5018842;28;20183;-65
2023/04/29 04:37:37;;;;;;;2.57;1.10;;;8.50;99.90;;;;;;5032780;28;20425;-65
2023/04/29 04:40:03;;;;;;;2.43;1.40;;;8.40;99.90;;;;;;5032185;28;20766;-65
2023/04/29 04:42:29;;;;;;;4.60;1.93;;;8.50;99.90;;;;;;4996662;28;20183;-65
2023/04/29 04:44:54;;;;;;;3.97;1.93;;;8.50;99.90;;;;;;5018210;28;20425;-65
2023/04/29 04:47:20;;;;;;;15.23;2.70;;;8.50;99.90;;;;;;5029041;28;20187;-65
2023/04/29 04:49:45;;;;;;;5.10;2.97;;;8.50;99.90;;;;;;5031675;28;20266;-65
2023/04/29 04:52:11;;;;;;;3.80;2.20;;;8.60;99.90;;;;;;5031954;28;20495;-65
2023/04/29 04:54:37;;;;;;;5.23;2.87;;;8.60;99.90;;;;;;5032217;28;20309;-65
2023/04/29 04:57:04;;;;;;;5.70;2.13;;;8.70;99.90;;;;;;5024502;28;20183;-65
2023/04/29 04:59:30;;;;;;;6.43;2.90;;;8.70;99.90;;;;;;5025741;28;20269;-65
2023/04/29 05:01:56;;;;;;;3.80;2.13;;;8.70;99.90;;;;;;5018872;28;20497;-65
2023/04/29 05:04:21;;;;;;;14.53;2.43;;;8.80;99.90;;;;;;5025266;28;20421;-65
2023/04/29 05:06:47;;;;;;;4.17;1.97;;;8.80;99.90;;;;;;5020317;28;20189;-65
2023/04/29 05:09:13;;;;;;;4.00;2.40;;;8.80;99.90;;;;;;5031889;28;20179;-65
2023/04/29 05:11:38;;;;;;;3.60;2.00;;;8.90;99.90;;;;;;5020102;28;20174;-65
2023/04/29 05:14:04;;;;;;;3.97;2.10;;;8.90;99.90;;;;;;5012234;28;20592;-65
2023/04/29 05:16:30;;;;;;;4.30;2.10;;;9.00;99.90;;;;;;5031916;28;20546;-65
2023/04/29 05:18:55;;;;;;;5.47;2.10;;;9.00;99.90;;;;;;5026331;28;20191;-65
2023/04/29 05:21:21;;;;;;;5.37;2.87;;;9.20;99.90;;;;;;5022525;28;20205;-65
2023/04/29 05:23:46;;;;;;;3.80;2.63;;;9.30;99.90;;;;;;5031340;28;20177;-65
2023/04/29 05:26:12;;;;;;;6.40;3.23;;;9.40;99.90;;;;;;5028501;28;20571;-65
2023/04/29 05:28:37;;;;;;;5.37;3.70;;;9.60;99.90;;;;;;5030514;28;20308;-65
2023/04/29 05:31:03;;;;;;;6.13;2.97;;;9.70;99.90;;;;;;5019639;28;20550;-65
2023/04/29 05:33:29;;;;;;;5.43;3.20;;;9.70;99.90;;;;;;5016515;28;20190;-65
2023/04/29 05:35:54;;;;;;;6.20;3.30;;;9.80;99.90;;;;;;5018948;28;20186;-65
2023/04/29 05:38:20;;;;;;;4.40;2.73;;;9.90;99.90;;;;;;5030537;28;20212;-65
2023/04/29 05:40:48;;;;;;;6.67;2.63;;;10.00;99.90;;;;;;5015614;28;20560;-65
2023/04/29 05:43:14;;;;;;;3.80;2.33;;;10.00;99.90;;;;;;5024761;28;20174;-65
2023/04/29 05:45:40;;;;;;;3.90;1.53;;;10.20;99.90;;;;;;5022796;28;20413;-65
2023/04/29 05:48:05;;;;;;;3.20;1.90;;;10.20;99.90;;;;;;5027628;28;20683;-65
2023/04/29 05:50:31;;;;;;;2.30;1.40;;;10.20;99.90;;;;;;5019314;28;20186;-65
2023/04/29 05:52:56;;;;;;;2.90;1.90;;;10.30;99.90;;;;;;5016280;28;20194;-66
2023/04/29 05:55:23;;;;;;;2.83;1.83;;;10.30;99.90;;;;;;5011304;28;20289;-65
2023/04/29 05:57:49;;;;;;;2.30;1.23;;;10.40;99.90;;;;;;5011563;28;21350;-65
2023/04/29 06:00:15;;;;;;;3.87;1.10;;;10.50;99.90;;;;;;5019408;28;20476;-65
2023/04/29 06:02:42;;;;;;;2.33;1.37;;;10.50;99.90;;;;;;5017127;28;20762;-65
2023/04/29 06:05:07;;;;;;;3.43;1.60;;;10.70;99.90;;;;;;5017665;28;20476;-66
2023/04/29 06:07:33;;;;;;;1.87;0.80;;;10.60;99.90;;;;;;5012141;28;20955;-65
2023/04/29 06:09:59;;;;;;;1.50;1.10;;;10.70;99.90;;;;;;5030219;28;20614;-65
2023/04/29 06:12:24;;;;;;;2.33;1.37;;;10.70;99.90;;;;;;5013930;28;20293;-65
2023/04/29 06:14:50;;;;;;;2.00;1.17;;;10.80;99.90;;;;;;5030052;28;20183;-66
2023/04/29 06:17:16;;;;;;;5.27;2.07;;;10.90;99.90;;;;;;5028846;28;20182;-66
2023/04/29 06:19:41;;;;;;;1.90;1.00;;;11.00;99.90;;;;;;5009886;28;20190;-66
2023/04/29 06:22:07;;;;;;;1.50;0.70;;;11.00;99.90;;;;;;5023891;28;20628;-65
2023/04/29 06:24:32;;;;;;;2.03;0.90;;;11.20;99.90;;;;;;5022591;28;20195;-65
2023/04/29 06:26:58;;;;;;;2.50;0.97;;;11.30;99.90;;;;;;5024190;28;20174;-65
2023/04/29 06:29:23;;;;;;;1.53;0.80;;;11.50;99.90;;;;;;5022822;28;20190;-66
2023/04/29 06:31:49;;;;;;;5.10;1.10;;;11.60;99.90;;;;;;5022865;28;20697;-65
2023/04/29 06:34:15;;;;;;;1.60;0.93;;;11.80;99.90;;;;;;5017462;28;20659;-65
2023/04/29 06:36:40;;;;;;;2.20;1.07;;;11.80;99.90;;;;;;5029902;28;20178;-65
2023/04/29 06:39:06;;;;;;;2.53;0.90;;;11.90;99.90;;;;;;5022681;28;20195;-67
2023/04/29 06:41:32;;;;;;;3.50;1.20;;;12.10;99.90;;;;;;5014444;28;20240;-67
2023/04/29 06:43:58;;;;;;;1.77;1.00;;;12.20;99.90;;;;;;5021904;28;20175;-67
2023/04/29 06:46:24;;;;;;;1.30;0.60;;;12.20;99.90;;;;;;5025517;28;20973;-67
2023/04/29 06:48:49;;;;;;;2.70;0.73;;;12.40;99.90;;;;;;5016451;28;20273;-67
2023/04/29 06:51:15;;;;;;;2.77;1.30;;;12.40;99.90;;;;;;5015508;28;20647;-67
2023/04/29 06:53:40;;;;;;;7.37;1.30;;;12.40;99.90;;;;;;5009291;28;20190;-67
2023/04/29 06:56:06;;;;;;;1.37;0.70;;;12.60;99.90;;;;;;5014948;28;20218;-67
2023/04/29 06:58:32;;;;;;;2.17;1.00;;;12.60;99.90;;;;;;5017584;28;20657;-67
2023/04/29 07:00:58;;;;;;;2.23;1.30;;;12.60;99.90;;;;;;5022743;28;20669;-67
2023/04/29 07:03:23;;;;;;;2.00;1.03;;;12.90;99.90;;;;;;5022138;28;20183;-67
2023/04/29 07:05:49;;;;;;;1.67;1.00;;;13.00;99.90;;;;;;5022618;28;20588;-67
2023/04/29 07:08:14;;;;;;;1.40;0.80;;;13.00;99.90;;;;;;5016919;28;20178;-67
2023/04/29 07:10:40;;;;;;;2.27;0.87;;;12.80;99.90;;;;;;5026435;28;20860;-67
2023/04/29 07:13:06;;;;;;;7.53;1.10;;;12.70;99.90;;;;;;5002975;28;20639;-67
2023/04/29 07:15:35;;;;;;;1.40;0.60;;;12.70;99.90;;;;;;5026152;28;20186;-67
2023/04/29 07:18:04;;;;;;;1.27;0.60;;;12.80;99.90;;;;;;5003271;28;20256;-67
2023/04/29 07:20:29;;;;;;;1.70;0.73;;;13.30;99.90;;;;;;5006316;28;20465;-67
2023/04/29 07:22:55;;;;;;;1.37;0.70;;;13.70;99.90;;;;;;5004146;28;20959;-67
2023/04/29 07:25:21;;;;;;;1.30;0.63;;;14.10;99.90;;;;;;5020857;28;20197;-65
2023/04/29 07:27:47;;;;;;;1.80;0.80;;;14.50;99.90;;;;;;5022251;28;20260;-65
2023/04/29 07:30:13;;;;;;;1.40;0.73;;;15.30;99.90;;;;;;5023778;28;20913;-65
2023/04/29 07:32:38;;;;;;;1.60;0.70;;;15.60;99.90;;;;;;5017467;28;20186;-65
2023/04/29 07:35:04;;;;;;;1.80;1.10;;;15.40;99.90;;;;;;5031117;28;20197;-65
2023/04/29 07:37:30;;;;;;;1.90;1.00;;;15.10;99.90;;;;;;5019914;28;20198;-65
2023/04/29 07:39:56;;;;;;;1.37;0.53;;;14.80;99.90;;;;;;5019899;28;20285;-65
2023/04/29 07:42:21;;;;;;;1.97;0.60;;;14.40;99.90;;;;;;5022846;28;20182;-65
2023/04/29 07:44:47;;;;;;;1.63;0.80;;;14.60;99.90;;;;;;5007862;28;20194;-65
2023/04/29 07:47:12;;;;;;;1.97;1.13;;;14.60;99.90;;;;;;5015981;28;20266;-65
2023/04/29 07:49:38;;;;;;;3.00;1.33;;;14.60;99.90;;;;;;5013685;28;20183;-65
2023/04/29 07:52:04;;;;;;;1.30;0.50;;;14.50;99.90;;;;;;5033057;28;20659;-65
2023/04/29 07:54:30;;;;;;;1.40;0.67;;;14.60;99.90;;;;;;5019509;28;20818;-65
2023/04/29 07:57:00;;;;;;;1.57;0.77;;;14.30;99.90;;;;;;5024716;28;20436;-65
2023/04/29 07:59:26;;;;;;;2.23;1.00;;;14.20;99.90;;;;;;5020217;28;20171;-65
2023/04/29 08:01:52;;;;;;;1.47;0.63;;;14.10;99.90;;;;;;5033031;28;20465;-65
2023/04/29 08:04:18;;;;;;;1.77;0.80;;;14.00;99.90;;;;;;5032460;28;20174;-65
2023/04/29 08:06:43;;;;;;;1.37;0.67;;;14.50;99.90;;;;;;5021316;28;20532;-66
2023/04/29 08:09:10;;;;;;;1.50;0.70;;;15.80;99.90;;;;;;5020172;28;20194;-66
2023/04/29 08:11:35;;;;;;;2.90;1.13;;;17.10;99.90;;;;;;5033167;28;20713;-66
2023/04/29 08:14:01;;;;;;;2.70;1.20;;;17.80;98.50;;;;;;5021227;28;20450;-66
2023/04/29 08:16:27;;;;;;;2.47;1.10;;;17.70;97.00;;;;;;5025862;28;20543;-65
2023/04/29 08:18:53;;;;;;;2.03;0.70;;;17.40;98.40;;;;;;5022423;28;20217;-65
2023/04/29 08:21:19;;;;;;;1.40;0.63;;;16.90;98.70;;;;;;5023916;28;20314;-65
2023/04/29 08:23:44;;;;;;;1.50;0.70;;;16.40;99.30;;;;;;5031217;28;20417;-65
2023/04/29 08:26:11;;;;;;;1.60;0.90;;;16.00;99.50;;;;;;5021290;28;20231;-65
2023/04/29 08:28:37;;;;;;;1.77;0.80;;;15.50;99.90;;;;;;5019609;28;20225;-65
2023/04/29 08:31:06;;;;;;;2.33;0.80;;;15.40;99.90;;;;;;5032954;28;20421;-66
2023/04/29 08:33:35;;;;;;;1.47;0.83;;;15.20;99.90;;;;;;5032178;28;20901;-65
2023/04/29 08:36:02;;;;;;;1.80;0.70;;;15.20;99.90;;;;;;5032717;28;20767;-66
2023/04/29 08:38:28;;;;;;;2.37;1.43;;;15.20;99.90;;;;;;5019505;28;20463;-66
2023/04/29 08:40:55;;;;;;;2.57;1.10;;;15.20;99.90;;;;;;5022394;28;20540;-66
2023/04/29 08:43:21;;;;;;;1.50;0.70;;;15.10;99.90;;;;;;5021370;28;20421;-66
2023/04/29 08:45:48;;;;;;;1.63;0.80;;;15.00;99.90;;;;;;5011489;28;20429;-65
2023/04/29 08:48:15;;;;;;;1.80;0.70;;;15.10;99.90;;;;;;5030722;28;20422;-66
2023/04/29 08:50:43;;;;;;;3.50;1.00;;;15.20;99.90;;;;;;5032006;28;20428;-66
2023/04/29 08:53:10;;;;;;;1.70;0.70;;;15.20;99.90;;;;;;5022209;28;20433;-66
2023/04/29 08:55:45;;;;;;;1.50;0.77;;;15.40;99.90;;;;;;5022847;28;20420;-66
2023/04/29 08:58:14;;;;;;;2.47;0.97;;;15.90;99.90;;;;;;5015151;28;20889;-66
2023/04/29 09:00:41;;;;;;;2.47;0.70;;;16.40;99.90;;;;;;5024079;28;20547;-66
2023/04/29 09:03:18;;;;;;;1.77;0.83;;;16.90;99.40;;;;;;5018677;28;20417;-66
2023/04/29 09:05:46;;;;;;;1.90;1.03;;;16.90;98.80;;;;;;5032127;28;20437;-66
2023/04/29 09:08:12;;;;;;;1.70;0.80;;;17.30;99.50;;;;;;5019197;28;20740;-66
2023/04/29 09:10:46;;;;;;;2.53;0.97;;;17.60;98.30;;;;;;5029552;28;20460;-66
2023/04/29 09:13:28;;;;;;;1.50;0.90;;;17.10;98.60;;;;;;5010482;28;20179;-66
2023/04/29 09:15:54;;;;;;;1.73;0.77;;;16.70;98.60;;;;;;5025564;28;20428;-66
2023/04/29 09:18:47;;;;;;;1.70;0.80;;;16.50;99.80;;;;;;5012303;28;20430;-66
2023/04/29 09:21:12;;;;;;;1.87;0.93;;;16.40;99.90;;;;;;5028576;28;20480;-66
2023/04/29 09:23:38;;;;;;;2.30;1.03;;;16.70;99.90;;;;;;5031646;28;20424;-66
2023/04/29 09:26:04;;;;;;;1.50;0.83;;;16.80;98.40;;;;;;5018371;28;20635;-66
2023/04/29 09:28:29;;;;;;;1.90;1.00;;;16.70;98.60;;;;;;5031841;28;20196;-66
2023/04/29 09:30:55;;;;;;;1.50;0.70;;;16.70;98.70;;;;;;5031691;28;20233;-65
2023/04/29 09:33:21;;;;;;;1.60;0.80;;;16.80;99.90;;;;;;5031458;28;20215;-65
2023/04/29 09:35:47;;;;;;;4.30;1.23;;;16.60;99.90;;;;;;5031341;28;20581;-65
2023/04/29 09:38:15;;;;;;;1.93;0.97;;;16.20;99.90;;;;;;5032079;28;20754;-66
2023/04/29 09:40:42;;;;;;;2.70;0.80;;;16.10;99.90;;;;;;5018313;28;20471;-65
2023/04/29 09:43:17;;;;;;;3.70;1.00;;;16.10;99.90;;;;;;5025938;28;20713;-66
2023/04/29 09:45:47;;;;;;;2.50;0.90;;;16.40;99.90;;;;;;5025930;28;20478;-66
2023/04/29 09:48:14;;;;;;;1.50;0.83;;;16.70;99.70;;;;;;5028954;28;20609;-66
2023/04/29 09:50:45;;;;;;;2.40;1.13;;;16.70;99.90;;;;;;5031097;28;20524;-66
2023/04/29 09:53:27;;;;;;;1.83;0.80;;;16.30;99.90;;;;;;5027167;28;20425;-65
2023/04/29 09:55:53;;;;;;;1.73;0.70;;;16.30;99.90;;;;;;5011530;28;20428;-66
2023/04/29 09:58:29;;;;;;;1.50;0.90;;;16.00;99.90;;;;;;5029839;28;20413;-66
2023/04/29 10:00:59;;;;;;;2.00;0.90;;;15.60;99.90;;;;;;5024984;28;20205;-66
2023/04/29 10:03:31;;;;;;;2.10;1.27;;;15.50;99.90;;;;;;5005742;28;20416;-65
2023/04/29 10:05:57;;;;;;;2.07;0.97;;;15.30;99.90;;;;;;5030759;28;20491;-66
2023/04/29 10:08:23;;;;;;;3.10;1.40;;;15.30;99.90;;;;;;5031412;28;20452;-66
2023/04/29 10:10:56;;;;;;;2.53;1.17;;;15.50;99.90;;;;;;5028338;28;20705;-65
2023/04/29 10:13:23;;;;;;;2.50;1.23;;;15.70;99.90;;;;;;5010764;28;20422;-65
2023/04/29 10:15:56;;;;;;;3.57;1.30;;;15.80;99.90;;;;;;5026372;28;20471;-65
2023/04/29 10:18:29;;;;;;;1.60;0.80;;;16.00;99.90;;;;;;5021726;28;20856;-66
2023/04/29 10:20:59;;;;;;;2.07;1.03;;;16.10;99.90;;;;;;5023671;28;20813;-65
2023/04/29 10:23:25;;;;;;;1.60;0.70;;;15.90;99.90;;;;;;5019412;28;20442;-66
2023/04/29 10:25:52;;;;;;;2.07;1.07;;;16.00;99.90;;;;;;5016037;28;20460;-65
2023/04/29 10:28:19;;;;;;;2.53;1.00;;;16.00;99.90;;;;;;5031015;28;20421;-65
2023/04/29 10:30:47;;;;;;;1.90;1.00;;;16.00;99.90;;;;;;5017862;28;20865;-66
2023/04/29 10:33:15;;;;;;;1.60;0.80;;;15.90;99.90;;;;;;5030793;28;20539;-65
2023/04/29 10:35:43;;;;;;;1.83;0.87;;;16.00;99.90;;;;;;5017319;28;20421;-66
2023/04/29 10:38:21;;;;;;;1.53;0.90;;;15.90;99.90;;;;;;5018523;28;20418;-66
2023/04/29 10:40:47;;;;;;;3.50;1.07;;;15.90;99.90;;;;;;5006445;28;20459;-65
2023/04/29 10:43:14;;;;;;;2.10;1.00;;;16.20;99.90;;;;;;5018802;28;20436;-66
2023/04/29 10:45:40;;;;;;;2.17;1.10;;;16.40;99.90;;;;;;5020532;28;20921;-65
2023/04/29 10:48:11;;;;;;;2.73;1.10;;;16.70;99.90;;;;;;5000582;28;20414;-65
2023/04/29 10:50:46;;;;;;;1.50;0.87;;;16.80;99.90;;;;;;5010970;28;20179;-66
2023/04/29 10:53:13;;;;;;;2.80;1.23;;;16.70;99.80;;;;;;5009837;28;20425;-66
2023/04/29 10:55:39;;;;;;;5.47;1.27;;;16.90;98.60;;;;;;5010804;28;20418;-66
2023/04/29 10:58:25;;;;;;;1.87;1.07;;;16.70;99.00;;;;;;5026839;28;20429;-66
2023/04/29 11:00:52;;;;;;;1.87;0.97;;;16.50;98.90;;;;;;5030286;28;20552;-65
2023/04/29 11:03:44;;;;;;;1.60;0.97;;;16.50;99.40;;;;;;5016806;28;20452;-65
2023/04/29 11:06:10;;;;;;;1.80;0.97;;;16.70;98.40;;;;;;5030566;28;20441;-66
2023/04/29 11:08:38;;;;;;;2.63;0.90;;;16.40;98.60;;;;;;5031316;28;20463;-66
2023/04/29 11:11:07;;;;;;;4.50;1.50;;;16.20;98.30;;;;;;5029711;28;20456;-66
2023/04/29 11:13:39;;;;;;;3.37;1.57;;;16.10;99.70;;;;;;5022738;28;20423;-66
2023/04/29 11:16:09;;;;;;;2.57;1.30;;;16.10;99.40;;;;;;5034534;28;20940;-66
2023/04/29 11:18:55;;;;;;;1.67;0.90;;;16.10;99.20;;;;;;5032499;28;20421;-65
2023/04/29 11:21:21;;;;;;;2.20;0.83;;;16.20;99.20;;;;;;5027511;28;21235;-65
2023/04/29 11:23:50;;;;;;;2.90;1.23;;;16.50;98.80;;;;;;5005853;28;20513;-66
2023/04/29 11:26:18;;;;;;;1.40;0.63;;;16.60;98.00;;;;;;5014192;28;20521;-66
2023/04/29 11:28:45;;;;;;;2.37;1.00;;;16.30;99.90;;;;;;5029458;28;20842;-66
2023/04/29 11:31:11;;;;;;;2.83;1.23;;;16.20;99.70;;;;;;5034311;28;20420;-67
2023/04/29 11:33:37;;;;;;;2.53;1.00;;;16.10;99.30;;;;;;5033559;28;20437;-66
2023/04/29 11:36:02;;;;;;;1.80;1.07;;;16.20;98.50;;;;;;5033939;28;20311;-66
2023/04/29 11:38:29;;;;;;;1.90;1.00;;;16.20;99.60;;;;;;5031405;28;20529;-66
2023/04/29 11:40:56;;;;;;;3.20;1.73;;;16.30;98.90;;;;;;5013828;28;20580;-66
2023/04/29 11:43:23;;;;;;;4.87;1.53;;;16.40;99.00;;;;;;5022141;28;20425;-66
2023/04/29 11:45:50;;;;;;;1.87;1.10;;;16.50;99.60;;;;;;5014082;28;20422;-66
2023/04/29 11:48:24;;;;;;;2.93;1.20;;;16.70;97.50;;;;;;5032424;28;20444;-66
2023/04/29 11:50:52;;;;;;;2.90;1.47;;;16.50;97.70;;;;;;5022849;28;20513;-66
2023/04/29 11:53:24;;;;;;;3.70;1.53;;;16.40;98.50;;;;;;5026212;28;20751;-66
2023/04/29 11:55:52;;;;;;;3.03;1.30;;;16.30;98.60;;;;;;5013950;28;20517;-66
2023/04/29 11:58:20;;;;;;;2.37;1.37;;;16.50;99.10;;;;;;5032471;28;20429;-66
2023/04/29 12:00:49;;;;;;;1.70;0.90;;;16.70;97.80;;;;;;5026761;28;20469;-66
2023/04/29 12:03:17;;;;;;;3.33;1.37;;;16.90;97.60;;;;;;5000679;28;20840;-66
2023/04/29 12:05:53;;;;;;;1.50;0.90;;;16.90;96.80;;;;;;5013574;28;20560;-66
2023/04/29 12:08:20;;;;;;;3.90;1.30;;;16.70;96.70;;;;;;5009406;28;20868;-66
2023/04/29 12:10:47;;;;;;;3.13;1.17;;;16.60;97.30;;;;;;5030821;28;20425;-66
2023/04/29 12:13:14;;;;;;;1.90;1.13;;;16.50;97.30;;;;;;5014863;28;20576;-66
2023/04/29 12:15:40;;;;;;;2.13;1.10;;;16.20;97.30;;;;;;5021370;28;20441;-66
2023/04/29 12:18:07;;;;;;;3.10;1.30;;;16.10;97.20;;;;;;5021596;28;20536;-67
2023/04/29 12:20:32;;;;;;;2.43;1.03;;;16.20;97.00;;;;;;5015990;28;20461;-66
2023/04/29 12:23:10;;;;;;;1.60;0.80;;;16.10;97.10;;;;;;5029048;28;20428;-66
2023/04/29 12:25:36;;;;;;;3.33;1.80;;;16.10;97.10;;;;;;5019655;28;20187;-66
2023/04/29 12:28:03;;;;;;;4.43;1.00;;;16.40;97.00;;;;;;5022832;28;20456;-67
2023/04/29 12:30:29;;;;;;;2.10;1.30;;;16.60;96.60;;;;;;5028924;28;20563;-66
2023/04/29 12:32:54;;;;;;;2.43;1.17;;;16.80;97.00;;;;;;5033073;28;20894;-66
2023/04/29 12:35:20;;;;;;;3.03;1.40;;;17.00;96.50;;;;;;5012996;28;20193;-67
2023/04/29 12:37:49;;;;;;;3.10;0.80;;;17.20;95.90;;;;;;5023703;28;20183;-66
2023/04/29 12:40:16;;;;;;;2.17;1.00;;;17.30;96.40;;;;;;5018996;28;20952;-66
2023/04/29 12:42:43;;;;;;;3.80;0.83;;;17.20;95.80;;;;;;5013717;28;20437;-66
2023/04/29 12:45:25;;;;;;;2.00;1.23;;;16.90;94.80;;;;;;5005573;28;20835;-66
2023/04/29 12:47:51;;;;;;;3.33;1.10;;;16.60;95.30;;;;;;5007414;28;20602;-66
2023/04/29 12:50:16;;;;;;;3.97;1.77;;;16.40;95.10;;;;;;5031213;28;21003;-66
2023/04/29 12:52:42;;;;;;;2.70;1.10;;;16.30;96.20;;;;;;5019657;28;20545;-66